Time;durP1;ratioP1;P1;durP2;ratioP2;P2;SDS_P1;SDS_P2;PMS_P1;PMS_P2;Temp;Humidity;BMP_temperature;BMP_pressure;BME280_temperature;BME280_humidity;BME280_pressure;Samples;Min_cycle;Max_cycle;Signal;HPM_P1;HPM_P2
2020/12/02 00:01:25;;;;;;;83.82;9.38;;;3.00;99.90;;;;;;5073003;28;20027;-80
2020/12/02 00:04:06;;;;;;;68.00;9.75;;;3.00;99.90;;;;;;5073158;28;20028;-79
2020/12/02 00:06:33;;;;;;;70.35;9.95;;;2.90;99.90;;;;;;5073382;28;20021;-80
2020/12/02 00:09:33;;;;;;;53.75;8.82;;;2.90;99.90;;;;;;5071028;28;20153;-79
2020/12/02 00:11:59;;;;;;;18.85;7.68;;;2.90;99.90;;;;;;5062294;28;20033;-80
2020/12/02 00:14:28;;;;;;;19.35;7.63;;;2.90;99.90;;;;;;5075251;28;20122;-80
2020/12/02 00:16:54;;;;;;;41.88;8.38;;;3.00;99.90;;;;;;5092321;28;20387;-80
2020/12/02 00:19:21;;;;;;;43.72;7.90;;;3.10;99.90;;;;;;5076919;28;20012;-80
2020/12/02 00:22:00;;;;;;;18.50;7.20;;;3.10;99.90;;;;;;5092296;28;20024;-80
2020/12/02 00:24:27;;;;;;;21.58;7.75;;;3.00;99.90;;;;;;5076851;28;20067;-79
2020/12/02 00:26:52;;;;;;;14.73;7.18;;;3.00;99.90;;;;;;5076238;28;20111;-80
2020/12/02 00:29:18;;;;;;;13.68;6.45;;;3.00;99.90;;;;;;5076513;28;20033;-80
2020/12/02 00:31:44;;;;;;;17.02;8.48;;;3.00;99.90;;;;;;5076484;28;20027;-80
2020/12/02 00:34:09;;;;;;;35.85;9.60;;;3.20;99.90;;;;;;5075017;28;20036;-80
2020/12/02 00:36:35;;;;;;;40.67;8.82;;;3.10;99.90;;;;;;5076304;28;20024;-80
2020/12/02 00:39:01;;;;;;;65.22;10.30;;;3.10;99.90;;;;;;5076279;28;20491;-80
2020/12/02 00:41:27;;;;;;;41.45;9.25;;;3.00;99.90;;;;;;5091853;28;20021;-80
2020/12/02 00:43:52;;;;;;;16.50;8.07;;;2.90;99.90;;;;;;5074528;28;20454;-80
2020/12/02 00:46:18;;;;;;;28.10;8.00;;;2.90;99.90;;;;;;5076059;28;20028;-80
2020/12/02 00:48:51;;;;;;;12.90;6.72;;;2.90;99.90;;;;;;5074850;28;20029;-80
2020/12/02 00:51:17;;;;;;;15.20;8.10;;;2.80;99.90;;;;;;5076158;28;20418;-80
2020/12/02 00:53:43;;;;;;;26.70;8.75;;;3.00;99.90;;;;;;5074726;28;20032;-80
2020/12/02 00:56:10;;;;;;;42.33;9.48;;;2.90;99.90;;;;;;5091601;28;20504;-79
2020/12/02 00:58:58;;;;;;;19.23;7.68;;;2.90;99.90;;;;;;5091550;28;20384;-80
2020/12/02 01:01:47;;;;;;;23.38;8.65;;;2.90;99.90;;;;;;5075982;28;20049;-80
2020/12/02 01:04:19;;;;;;;25.67;8.48;;;2.80;99.90;;;;;;5076179;28;20063;-80
2020/12/02 01:06:46;;;;;;;44.38;9.35;;;2.80;99.90;;;;;;5074585;28;20123;-80
2020/12/02 01:09:16;;;;;;;35.33;8.50;;;2.90;99.90;;;;;;5076067;28;20025;-80
2020/12/02 01:11:44;;;;;;;31.88;8.77;;;2.90;99.90;;;;;;5091332;28;20495;-80
2020/12/02 01:14:14;;;;;;;50.42;8.50;;;2.90;99.90;;;;;;5075432;28;20091;-80
2020/12/02 01:16:47;;;;;;;23.52;8.50;;;2.90;99.90;;;;;;5075939;28;20071;-80
2020/12/02 01:19:16;;;;;;;41.63;11.40;;;2.80;99.90;;;;;;5091327;28;20138;-80
2020/12/02 01:21:56;;;;;;;80.43;11.50;;;2.80;99.90;;;;;;5090669;28;20422;-79
2020/12/02 01:24:29;;;;;;;15.55;7.32;;;2.90;99.90;;;;;;5074228;28;20020;-80
2020/12/02 01:27:05;;;;;;;49.47;10.90;;;2.80;99.90;;;;;;5091150;28;20033;-79
2020/12/02 01:29:31;;;;;;;29.13;9.25;;;2.80;99.90;;;;;;5091004;28;20112;-80
2020/12/02 01:31:58;;;;;;;64.13;10.07;;;2.80;99.90;;;;;;5075332;28;20063;-80
2020/12/02 01:34:25;;;;;;;56.90;9.93;;;2.90;99.90;;;;;;5075220;28;20108;-79
2020/12/02 01:37:06;;;;;;;30.13;8.77;;;2.90;99.90;;;;;;5075125;28;20036;-80
2020/12/02 01:39:35;;;;;;;24.23;8.95;;;2.70;99.90;;;;;;5075135;28;20031;-80
2020/12/02 01:42:07;;;;;;;57.42;10.38;;;2.80;99.90;;;;;;5075126;28;20426;-80
2020/12/02 01:44:33;;;;;;;26.33;8.95;;;2.80;99.90;;;;;;5090834;28;20495;-80
2020/12/02 01:47:26;;;;;;;32.85;9.25;;;2.90;99.90;;;;;;5073698;28;20056;-79
2020/12/02 01:49:59;;;;;;;26.65;8.75;;;2.90;99.90;;;;;;5074940;28;20050;-79
2020/12/02 01:52:47;;;;;;;44.42;9.75;;;3.10;99.90;;;;;;5074870;28;20483;-79
2020/12/02 01:55:19;;;;;;;33.78;9.70;;;3.10;99.90;;;;;;5073592;28;20063;-80
2020/12/02 01:57:48;;;;;;;42.67;9.73;;;3.00;99.90;;;;;;5074991;28;20111;-80
2020/12/02 02:00:21;;;;;;;27.42;10.05;;;3.00;99.90;;;;;;5090361;28;20104;-80
2020/12/02 02:03:11;;;;;;;48.25;12.10;;;3.00;99.90;;;;;;5074964;28;20021;-79
2020/12/02 02:05:50;;;;;;;32.05;9.35;;;3.00;99.90;;;;;;5073423;28;20024;-79
2020/12/02 02:08:18;;;;;;;28.23;9.68;;;3.00;99.90;;;;;;5074606;28;20103;-80
2020/12/02 02:10:47;;;;;;;20.15;9.65;;;2.80;99.90;;;;;;5074549;28;20035;-79
2020/12/02 02:13:16;;;;;;;41.40;11.75;;;2.90;99.90;;;;;;5074250;28;20036;-80
2020/12/02 02:15:49;;;;;;;23.27;9.73;;;2.90;99.90;;;;;;5073283;28;20039;-80
2020/12/02 02:18:20;;;;;;;38.25;11.07;;;2.90;99.90;;;;;;5074719;28;20033;-79
2020/12/02 02:20:51;;;;;;;44.90;10.63;;;2.80;99.90;;;;;;5074683;28;20103;-79
2020/12/02 02:23:18;;;;;;;26.25;10.25;;;2.70;99.90;;;;;;5090005;28;20078;-80
2020/12/02 02:26:13;;;;;;;59.25;10.35;;;2.70;99.90;;;;;;5074306;28;20020;-79
2020/12/02 02:28:43;;;;;;;44.70;10.15;;;2.80;99.90;;;;;;5052170;28;20432;-79
2020/12/02 02:31:15;;;;;;;48.35;11.23;;;2.80;99.90;;;;;;5089774;28;20369;-79
2020/12/02 02:33:41;;;;;;;69.38;9.88;;;2.70;99.90;;;;;;5073593;28;20475;-80
2020/12/02 02:36:11;;;;;;;69.78;10.52;;;2.70;99.90;;;;;;5074184;28;20059;-80
2020/12/02 02:38:38;;;;;;;79.80;9.98;;;2.80;99.90;;;;;;5072727;28;20016;-79
2020/12/02 02:41:05;;;;;;;63.03;9.13;;;2.90;99.90;;;;;;5073982;28;20032;-79
2020/12/02 02:43:31;;;;;;;81.55;10.32;;;2.90;99.90;;;;;;5072710;28;20024;-80
2020/12/02 02:45:57;;;;;;;32.28;10.25;;;2.80;99.90;;;;;;5074341;28;20027;-79
2020/12/02 02:48:23;;;;;;;48.92;9.95;;;2.70;99.90;;;;;;5074170;28;20025;-79
2020/12/02 02:50:49;;;;;;;65.07;10.65;;;2.70;99.90;;;;;;5072533;28;20067;-79
2020/12/02 02:53:17;;;;;;;128.90;11.50;;;2.70;99.90;;;;;;5072441;28;20056;-79
2020/12/02 02:55:43;;;;;;;21.27;9.52;;;2.60;99.90;;;;;;5089433;28;20426;-79
2020/12/02 02:58:09;;;;;;;113.97;10.60;;;2.70;99.90;;;;;;5072695;28;20169;-80
2020/12/02 03:00:35;;;;;;;98.43;10.65;;;2.80;99.90;;;;;;5072415;28;20085;-80
2020/12/02 03:03:01;;;;;;;45.40;9.40;;;2.80;99.90;;;;;;5089353;28;20028;-79
2020/12/02 03:05:28;;;;;;;65.50;9.25;;;2.70;99.90;;;;;;5072439;28;20029;-79
2020/12/02 03:08:01;;;;;;;84.03;9.48;;;2.80;99.90;;;;;;5073652;28;20025;-79
2020/12/02 03:10:30;;;;;;;123.55;12.45;;;2.80;99.90;;;;;;5074175;28;20360;-79
2020/12/02 03:12:59;;;;;;;62.58;9.68;;;2.70;99.90;;;;;;5088919;28;20060;-79
2020/12/02 03:15:25;;;;;;;83.45;11.13;;;2.80;99.90;;;;;;5072337;28;20115;-79
2020/12/02 03:17:51;;;;;;;72.00;10.55;;;2.70;99.90;;;;;;5089120;28;20028;-80
2020/12/02 03:20:21;;;;;;;44.97;10.13;;;2.80;99.90;;;;;;5073747;28;20017;-80
2020/12/02 03:22:48;;;;;;;59.90;9.32;;;2.70;99.90;;;;;;5089047;28;20048;-79
2020/12/02 03:25:22;;;;;;;125.57;12.50;;;2.80;99.90;;;;;;5073473;28;20021;-79
2020/12/02 03:27:48;;;;;;;11.85;7.57;;;2.80;99.90;;;;;;5073484;28;20036;-79
2020/12/02 03:30:14;;;;;;;102.85;10.85;;;2.80;99.90;;;;;;5073401;28;20392;-79
2020/12/02 03:32:40;;;;;;;76.82;10.20;;;2.90;99.90;;;;;;5072044;28;20028;-80
2020/12/02 03:35:06;;;;;;;85.63;11.38;;;2.70;99.90;;;;;;5072075;28;20388;-80
2020/12/02 03:37:32;;;;;;;62.70;10.63;;;2.70;99.90;;;;;;5073383;28;20027;-80
2020/12/02 03:39:57;;;;;;;67.68;11.18;;;2.80;99.90;;;;;;5072034;28;20024;-80
2020/12/02 03:42:23;;;;;;;60.80;9.60;;;2.70;99.90;;;;;;5072040;28;20017;-79
2020/12/02 03:44:49;;;;;;;130.82;11.25;;;2.70;99.90;;;;;;5073199;28;20024;-79
2020/12/02 03:47:15;;;;;;;82.68;10.95;;;2.80;99.90;;;;;;5059312;28;20065;-79
2020/12/02 03:49:40;;;;;;;67.38;10.95;;;2.80;99.90;;;;;;5075952;28;20384;-80
2020/12/02 03:52:06;;;;;;;98.45;10.50;;;2.80;99.90;;;;;;5077264;28;20024;-80
2020/12/02 03:54:32;;;;;;;70.88;10.15;;;2.70;99.90;;;;;;5077162;28;20056;-79
2020/12/02 03:56:57;;;;;;;115.22;13.15;;;2.70;99.90;;;;;;5075909;28;20074;-79
2020/12/02 03:59:23;;;;;;;109.47;10.35;;;2.70;99.90;;;;;;5075819;28;20063;-79
2020/12/02 04:01:49;;;;;;;161.70;13.30;;;2.80;99.90;;;;;;5075766;28;20070;-79
2020/12/02 04:04:14;;;;;;;44.45;9.57;;;2.70;99.90;;;;;;5075813;28;20029;-79
2020/12/02 04:06:40;;;;;;;100.70;12.55;;;2.80;99.90;;;;;;5076974;28;20028;-80
2020/12/02 04:09:06;;;;;;;108.38;10.68;;;2.80;99.90;;;;;;5075619;28;20020;-79
2020/12/02 04:11:31;;;;;;;68.05;9.77;;;2.80;99.90;;;;;;5092379;28;20025;-79
2020/12/02 04:13:58;;;;;;;89.78;11.35;;;2.70;99.90;;;;;;5075243;28;20051;-79
2020/12/02 04:16:24;;;;;;;78.20;10.95;;;2.90;99.90;;;;;;5076762;28;20465;-79
2020/12/02 04:18:50;;;;;;;65.63;11.02;;;2.70;99.90;;;;;;5075406;28;20017;-79
2020/12/02 04:21:24;;;;;;;64.95;10.65;;;2.70;99.90;;;;;;5075344;28;20032;-80
2020/12/02 04:23:52;;;;;;;112.97;12.15;;;2.70;99.90;;;;;;5077195;28;20028;-79
2020/12/02 04:26:18;;;;;;;95.68;12.45;;;2.60;99.90;;;;;;5076499;28;20074;-79
2020/12/02 04:28:44;;;;;;;49.67;10.68;;;2.60;99.90;;;;;;5076544;28;20107;-79
2020/12/02 04:31:09;;;;;;;61.05;11.23;;;2.70;99.90;;;;;;5075174;28;20115;-80
2020/12/02 04:33:35;;;;;;;71.65;11.20;;;2.70;99.90;;;;;;5076317;28;20028;-79
2020/12/02 04:36:01;;;;;;;50.88;10.93;;;2.70;99.90;;;;;;5075052;28;20025;-80
2020/12/02 04:38:26;;;;;;;26.08;9.88;;;2.70;99.90;;;;;;5075135;28;20031;-80
2020/12/02 04:40:52;;;;;;;73.65;12.48;;;2.70;99.90;;;;;;5091868;28;20037;-80
2020/12/02 04:43:32;;;;;;;66.40;12.73;;;2.80;99.90;;;;;;5076562;28;20028;-80
2020/12/02 04:45:58;;;;;;;51.35;11.23;;;2.70;99.90;;;;;;5074860;28;20476;-79
2020/12/02 04:48:30;;;;;;;14.45;9.50;;;2.80;99.90;;;;;;5076166;28;20027;-80
2020/12/02 04:51:18;;;;;;;40.85;11.20;;;2.70;99.90;;;;;;5074851;28;20032;-80
2020/12/02 04:53:48;;;;;;;74.00;12.68;;;2.70;99.90;;;;;;5091570;28;20086;-80
2020/12/02 04:56:14;;;;;;;56.75;14.20;;;2.70;99.90;;;;;;5076155;28;20424;-80
2020/12/02 04:58:40;;;;;;;28.58;10.25;;;2.70;99.90;;;;;;5073897;28;20032;-79
2020/12/02 05:01:20;;;;;;;45.70;12.02;;;2.70;99.90;;;;;;5075961;28;20029;-80
2020/12/02 05:03:52;;;;;;;45.90;13.07;;;2.70;99.90;;;;;;5091749;28;20054;-79
2020/12/02 05:06:31;;;;;;;16.42;9.82;;;2.60;99.90;;;;;;5075852;28;20039;-79
2020/12/02 05:09:30;;;;;;;17.13;9.60;;;2.70;99.90;;;;;;5091598;28;20028;-80
2020/12/02 05:12:01;;;;;;;27.92;11.00;;;2.70;99.90;;;;;;5042287;28;20040;-79
2020/12/02 05:14:39;;;;;;;15.10;9.55;;;2.80;99.90;;;;;;5074205;28;20056;-80
2020/12/02 05:17:17;;;;;;;38.72;11.50;;;2.80;99.90;;;;;;5091234;28;20066;-80
2020/12/02 05:19:47;;;;;;;18.80;10.57;;;2.70;99.90;;;;;;5075573;28;20028;-80
2020/12/02 05:22:17;;;;;;;17.90;10.95;;;2.70;99.90;;;;;;5091178;28;20031;-80
2020/12/02 05:24:50;;;;;;;18.77;10.77;;;2.80;99.90;;;;;;5075524;28;20023;-80
2020/12/02 05:27:21;;;;;;;17.52;10.48;;;2.70;99.90;;;;;;5090961;28;20032;-79
2020/12/02 05:30:03;;;;;;;22.52;11.15;;;2.70;99.90;;;;;;5090982;28;20035;-79
2020/12/02 05:32:29;;;;;;;18.52;11.00;;;2.70;99.90;;;;;;5075875;28;20096;-80
2020/12/02 05:34:56;;;;;;;17.83;11.10;;;2.80;99.90;;;;;;5074011;28;20032;-80
2020/12/02 05:37:37;;;;;;;20.30;10.80;;;2.80;99.90;;;;;;5075285;28;20027;-79
2020/12/02 05:40:09;;;;;;;32.53;11.40;;;2.80;99.90;;;;;;5075188;28;20024;-80
2020/12/02 05:42:37;;;;;;;20.40;10.30;;;2.80;99.90;;;;;;5073900;28;20024;-80
2020/12/02 05:45:19;;;;;;;19.15;11.52;;;2.80;99.90;;;;;;5090707;28;20028;-80
2020/12/02 05:47:49;;;;;;;22.15;10.88;;;2.90;99.90;;;;;;5090633;28;20476;-79
2020/12/02 05:50:16;;;;;;;18.42;10.60;;;2.80;99.90;;;;;;5075020;28;20112;-80
2020/12/02 05:52:45;;;;;;;19.30;11.63;;;2.80;99.90;;;;;;5073421;28;20090;-79
2020/12/02 05:55:20;;;;;;;16.20;10.00;;;2.70;99.90;;;;;;5090469;28;20020;-80
2020/12/02 05:58:08;;;;;;;15.80;10.43;;;2.80;99.90;;;;;;5073585;28;20029;-79
2020/12/02 06:00:34;;;;;;;17.40;11.30;;;2.80;99.90;;;;;;5073440;28;20020;-80
2020/12/02 06:03:00;;;;;;;20.52;10.90;;;2.80;99.90;;;;;;5073436;28;20158;-80
2020/12/02 06:05:30;;;;;;;16.92;10.23;;;2.80;99.90;;;;;;5090232;28;20032;-80
2020/12/02 06:08:03;;;;;;;17.23;11.65;;;2.80;99.90;;;;;;5073175;28;20028;-80
2020/12/02 06:10:55;;;;;;;21.38;11.77;;;2.80;99.90;;;;;;5090259;28;20021;-80
2020/12/02 06:13:42;;;;;;;18.80;11.15;;;2.80;99.90;;;;;;5074214;28;20516;-80
2020/12/02 06:16:12;;;;;;;17.27;11.05;;;2.80;99.90;;;;;;5090474;28;20029;-80
2020/12/02 06:18:39;;;;;;;19.25;11.70;;;2.80;99.90;;;;;;5075293;28;20388;-80
2020/12/02 06:21:07;;;;;;;25.60;12.75;;;2.80;99.90;;;;;;5090031;28;20046;-80
2020/12/02 06:23:54;;;;;;;17.48;11.57;;;2.80;99.90;;;;;;5089984;28;20042;-80
2020/12/02 06:26:42;;;;;;;20.00;11.80;;;2.80;99.90;;;;;;5090131;28;20028;-80
2020/12/02 06:29:36;;;;;;;19.40;11.93;;;2.80;99.90;;;;;;5089927;28;20052;-80
2020/12/02 06:32:21;;;;;;;21.02;13.95;;;2.80;99.90;;;;;;5072910;28;20089;-80
2020/12/02 06:35:06;;;;;;;22.40;12.82;;;2.80;99.90;;;;;;5074128;28;20052;-80
2020/12/02 06:37:32;;;;;;;18.58;12.23;;;2.70;99.90;;;;;;5074162;28;20017;-79
2020/12/02 06:39:59;;;;;;;22.83;14.10;;;2.70;99.90;;;;;;5074330;28;20460;-80
2020/12/02 06:42:33;;;;;;;28.60;14.90;;;2.80;99.90;;;;;;5089642;28;20025;-79
2020/12/02 06:45:17;;;;;;;22.45;12.88;;;2.70;99.90;;;;;;5089533;28;20029;-79
2020/12/02 06:47:48;;;;;;;25.27;13.20;;;2.70;99.90;;;;;;5072681;28;20508;-80
2020/12/02 06:50:17;;;;;;;22.05;13.52;;;2.80;99.90;;;;;;5073851;28;20792;-80
2020/12/02 06:52:43;;;;;;;22.45;13.65;;;2.90;99.90;;;;;;5073834;28;20020;-80
2020/12/02 06:55:28;;;;;;;21.80;13.80;;;2.80;99.90;;;;;;5073858;28;20017;-80
2020/12/02 06:58:01;;;;;;;23.33;14.27;;;2.70;99.90;;;;;;5073863;28;20017;-80
2020/12/02 07:00:48;;;;;;;21.98;13.75;;;2.80;99.90;;;;;;5072501;28;20384;-80
2020/12/02 07:03:17;;;;;;;23.48;15.02;;;2.80;99.90;;;;;;5072541;28;20058;-80
2020/12/02 07:05:44;;;;;;;22.70;15.02;;;2.80;99.90;;;;;;5073748;28;20029;-80
2020/12/02 07:08:15;;;;;;;21.58;13.73;;;2.80;99.90;;;;;;5072361;28;20028;-80
2020/12/02 07:11:02;;;;;;;25.85;15.85;;;2.60;99.90;;;;;;5084407;28;20008;-80
2020/12/02 07:13:31;;;;;;;25.73;16.05;;;2.70;99.90;;;;;;5076418;28;20044;-80
2020/12/02 07:15:57;;;;;;;22.35;14.75;;;2.70;99.90;;;;;;5089143;28;20024;-80
2020/12/02 07:18:24;;;;;;;22.27;14.23;;;2.70;99.90;;;;;;5072875;28;20091;-80
2020/12/02 07:21:00;;;;;;;21.73;13.75;;;2.70;99.90;;;;;;5072951;28;20028;-80
2020/12/02 07:23:31;;;;;;;19.60;12.45;;;2.80;99.90;;;;;;5073782;28;20033;-80
2020/12/02 07:25:56;;;;;;;21.50;13.25;;;2.80;99.90;;;;;;5072212;28;20502;-80
2020/12/02 07:28:22;;;;;;;21.95;13.30;;;2.80;99.90;;;;;;5073436;28;20021;-80
2020/12/02 07:30:49;;;;;;;29.80;17.52;;;2.80;99.90;;;;;;5073435;28;20021;-80
2020/12/02 07:33:25;;;;;;;24.00;14.68;;;2.70;99.90;;;;;;5073336;28;20033;-80
2020/12/02 07:36:08;;;;;;;22.33;13.18;;;2.70;99.90;;;;;;5073729;28;20021;-80
2020/12/02 07:38:34;;;;;;;22.88;14.70;;;2.80;99.90;;;;;;5073646;28;20024;-80
2020/12/02 07:41:18;;;;;;;29.10;11.75;;;2.70;99.90;;;;;;5072066;28;20043;-80
2020/12/02 07:43:46;;;;;;;;;;;2.60;99.90;;;;;;5089339;28;20032;-80
2020/12/02 07:46:13;;;;;;;22.95;14.30;;;2.60;99.90;;;;;;5073208;28;19904;-80
2020/12/02 07:48:40;;;;;;;22.05;13.10;;;2.70;99.90;;;;;;5088807;28;20021;-80
2020/12/02 07:51:28;;;;;;;26.45;14.82;;;2.70;99.90;;;;;;5088736;28;20081;-80
2020/12/02 07:53:55;;;;;;;23.58;13.38;;;2.70;99.90;;;;;;5088740;28;20021;-80
2020/12/02 07:56:34;;;;;;;20.60;12.82;;;2.70;99.90;;;;;;5073406;28;20186;-80
2020/12/02 07:59:19;;;;;;;27.35;13.85;;;2.70;99.90;;;;;;5088749;28;20025;-80
2020/12/02 08:01:57;;;;;;;23.80;13.25;;;2.60;99.90;;;;;;5073704;28;20360;-80
2020/12/02 08:04:23;;;;;;;23.05;13.77;;;2.60;99.90;;;;;;5071846;28;20020;-80
2020/12/02 08:07:02;;;;;;;27.52;14.45;;;2.60;99.90;;;;;;5071756;28;20468;-79
2020/12/02 08:09:33;;;;;;;20.55;13.13;;;2.70;99.90;;;;;;5071788;28;20113;-80
2020/12/02 08:12:03;;;;;;;22.83;13.40;;;2.70;99.90;;;;;;5088606;28;20024;-79
2020/12/02 08:14:30;;;;;;;24.88;13.75;;;2.70;99.90;;;;;;5072960;28;20496;-79
2020/12/02 08:17:10;;;;;;;21.92;13.05;;;2.70;99.90;;;;;;5088568;28;20472;-80
2020/12/02 08:19:39;;;;;;;19.90;12.70;;;2.70;99.90;;;;;;5088595;28;20495;-79
2020/12/02 08:22:06;;;;;;;18.08;12.30;;;2.80;99.90;;;;;;5088489;28;20021;-79
2020/12/02 08:24:34;;;;;;;37.92;22.30;;;2.80;99.90;;;;;;5071656;28;20024;-79
2020/12/02 08:27:01;;;;;;;22.42;12.85;;;2.70;99.90;;;;;;5072905;28;20024;-78
2020/12/02 08:29:29;;;;;;;24.02;13.02;;;2.70;99.90;;;;;;5088412;28;20115;-78
2020/12/02 08:32:26;;;;;;;20.45;12.45;;;2.70;99.90;;;;;;5088808;28;20028;-78
2020/12/02 08:34:51;;;;;;;23.80;13.20;;;2.80;99.90;;;;;;5075067;28;20032;-78
2020/12/02 08:37:40;;;;;;;20.33;12.07;;;2.80;99.90;;;;;;5075104;28;20021;-78
2020/12/02 08:40:40;;;;;;;22.73;13.60;;;2.70;99.90;;;;;;5092010;28;20025;-79
2020/12/02 08:43:37;;;;;;;20.15;12.20;;;2.80;99.90;;;;;;5074986;28;20033;-79
2020/12/02 08:46:27;;;;;;;19.48;11.68;;;2.90;99.90;;;;;;5066021;28;20044;-79
2020/12/02 08:48:57;;;;;;;17.90;11.95;;;2.80;99.90;;;;;;5076180;28;20032;-79
2020/12/02 08:51:24;;;;;;;20.08;11.65;;;2.80;99.90;;;;;;5091845;28;20480;-79
2020/12/02 08:53:52;;;;;;;19.25;12.48;;;2.70;99.90;;;;;;5091643;28;20079;-79
2020/12/02 08:56:34;;;;;;;23.38;13.60;;;2.70;99.90;;;;;;5074793;28;20108;-79
2020/12/02 08:59:01;;;;;;;22.75;13.20;;;2.70;99.90;;;;;;5074840;28;20048;-79
2020/12/02 09:01:27;;;;;;;22.02;13.48;;;2.70;99.90;;;;;;5091513;28;20452;-79
2020/12/02 09:03:53;;;;;;;20.45;12.68;;;2.70;99.90;;;;;;5091558;28;20119;-79
2020/12/02 09:06:20;;;;;;;21.83;13.45;;;2.70;99.90;;;;;;5074637;28;20116;-79
2020/12/02 09:08:47;;;;;;;18.77;11.90;;;2.80;99.90;;;;;;5075870;28;20408;-80
2020/12/02 09:11:20;;;;;;;25.27;13.40;;;2.80;99.90;;;;;;5075858;28;20031;-80
2020/12/02 09:13:47;;;;;;;18.08;11.30;;;2.70;99.90;;;;;;5091172;28;20550;-79
2020/12/02 09:16:18;;;;;;;19.02;12.00;;;2.70;99.90;;;;;;5075710;28;20024;-79
2020/12/02 09:18:43;;;;;;;22.83;12.80;;;2.70;99.90;;;;;;5091272;28;20028;-79
2020/12/02 09:21:09;;;;;;;24.77;11.65;;;2.60;99.90;;;;;;5074368;28;20024;-79
2020/12/02 09:23:35;;;;;;;21.70;12.30;;;2.80;99.90;;;;;;5074319;28;20031;-79
2020/12/02 09:26:01;;;;;;;23.10;14.20;;;2.70;99.90;;;;;;5074510;28;20369;-79
2020/12/02 09:28:26;;;;;;;41.53;23.60;;;2.60;99.90;;;;;;5074173;28;20032;-79
2020/12/02 09:30:52;;;;;;;27.52;16.48;;;2.70;99.90;;;;;;5091003;28;20029;-79
2020/12/02 09:33:18;;;;;;;34.78;18.50;;;2.70;99.90;;;;;;5074026;28;20120;-79
2020/12/02 09:35:44;;;;;;;39.95;23.65;;;2.60;99.90;;;;;;5074027;28;20111;-79
2020/12/02 09:38:10;;;;;;;56.63;32.20;;;2.60;99.90;;;;;;5075573;28;20056;-80
2020/12/02 09:40:35;;;;;;;29.65;17.42;;;2.70;99.90;;;;;;5075203;28;20021;-80
2020/12/02 09:43:04;;;;;;;26.60;15.95;;;2.70;99.90;;;;;;5073388;28;20162;-79
2020/12/02 09:45:45;;;;;;;29.48;17.48;;;2.70;99.90;;;;;;5073791;28;20024;-80
2020/12/02 09:48:15;;;;;;;29.73;17.83;;;2.70;99.90;;;;;;5075116;28;20024;-79
2020/12/02 09:50:41;;;;;;;18.45;11.10;;;2.70;99.90;;;;;;5073774;28;20024;-79
2020/12/02 09:53:21;;;;;;;20.48;12.85;;;2.70;99.90;;;;;;5074870;28;20025;-79
2020/12/02 09:55:47;;;;;;;65.18;29.00;;;2.70;99.90;;;;;;5090580;28;20062;-80
2020/12/02 09:58:13;;;;;;;21.13;13.43;;;2.80;99.90;;;;;;5090501;28;20480;-79
2020/12/02 10:00:39;;;;;;;22.67;13.27;;;2.80;99.90;;;;;;5073548;28;20021;-79
2020/12/02 10:03:33;;;;;;;26.75;16.48;;;2.70;99.90;;;;;;5074822;28;20027;-79
2020/12/02 10:06:18;;;;;;;20.88;13.05;;;2.70;99.90;;;;;;5074765;28;20052;-79
2020/12/02 10:09:14;;;;;;;21.45;12.82;;;2.70;99.90;;;;;;5074962;28;20024;-79
2020/12/02 10:11:56;;;;;;;19.20;11.95;;;2.70;99.90;;;;;;5047708;28;20032;-79
2020/12/02 10:14:39;;;;;;;17.30;11.18;;;2.70;99.90;;;;;;5089923;28;20051;-79
2020/12/02 10:17:16;;;;;;;15.93;10.48;;;2.60;99.90;;;;;;5074836;28;20013;-79
2020/12/02 10:19:54;;;;;;;17.58;11.68;;;2.60;99.90;;;;;;5074451;28;20028;-78
2020/12/02 10:22:41;;;;;;;18.20;11.27;;;2.60;99.90;;;;;;5073082;28;20017;-78
2020/12/02 10:25:31;;;;;;;20.83;11.95;;;2.60;99.90;;;;;;5073124;28;20439;-78
2020/12/02 10:28:11;;;;;;;19.38;11.20;;;2.70;99.90;;;;;;5074255;28;20024;-78
2020/12/02 10:31:10;;;;;;;15.98;10.45;;;2.70;99.90;;;;;;5072921;28;20024;-80
2020/12/02 10:34:04;;;;;;;15.70;10.55;;;2.70;99.90;;;;;;5064613;28;20554;-80
2020/12/02 10:36:36;;;;;;;18.55;10.77;;;2.70;99.90;;;;;;5089786;28;20077;-77
2020/12/02 10:39:07;;;;;;;20.25;11.75;;;2.80;99.90;;;;;;5089797;28;20380;-78
2020/12/02 10:42:11;;;;;;;17.48;11.43;;;2.80;99.90;;;;;;5074415;28;20016;-79
2020/12/02 10:44:51;;;;;;;16.88;11.13;;;2.80;99.90;;;;;;5074054;28;20034;-80
2020/12/02 10:47:36;;;;;;;16.75;9.27;;;2.90;99.90;;;;;;5073980;28;20495;-80
2020/12/02 10:50:03;;;;;;;14.88;10.05;;;2.80;99.90;;;;;;5072655;28;20493;-80
2020/12/02 10:52:29;;;;;;;18.08;11.50;;;2.90;99.90;;;;;;5089465;28;20028;-79
2020/12/02 10:54:56;;;;;;;18.08;10.82;;;2.80;99.90;;;;;;5073490;28;20025;-80
2020/12/02 10:57:24;;;;;;;15.80;10.50;;;2.80;99.90;;;;;;5072633;28;20104;-79
2020/12/02 10:59:57;;;;;;;16.75;10.02;;;2.80;99.90;;;;;;5089390;28;20480;-79
2020/12/02 11:02:27;;;;;;;17.85;9.88;;;2.70;99.90;;;;;;5089386;28;20380;-80
2020/12/02 11:04:54;;;;;;;14.57;9.60;;;2.80;99.90;;;;;;5073820;28;20024;-79
2020/12/02 11:07:25;;;;;;;16.45;9.20;;;2.90;99.90;;;;;;5072391;28;20020;-80
2020/12/02 11:10:02;;;;;;;13.95;8.60;;;2.90;99.90;;;;;;5073554;28;20031;-79
2020/12/02 11:12:56;;;;;;;24.17;14.52;;;2.90;99.90;;;;;;5089250;28;20028;-78
2020/12/02 11:15:50;;;;;;;33.38;17.92;;;2.90;99.90;;;;;;5073817;28;20040;-79
2020/12/02 11:18:54;;;;;;;17.52;10.68;;;2.90;99.90;;;;;;5089016;28;20052;-81
2020/12/02 11:21:41;;;;;;;12.25;9.20;;;3.00;99.90;;;;;;5098696;28;20057;-77
2020/12/02 11:24:28;;;;;;;14.63;9.48;;;2.90;99.90;;;;;;5080944;28;20055;-79
2020/12/02 11:26:54;;;;;;;14.75;8.70;;;2.90;99.90;;;;;;5075107;28;20024;-79
2020/12/02 11:29:21;;;;;;;12.73;8.00;;;2.60;99.90;;;;;;5076690;28;20027;-79
2020/12/02 11:31:47;;;;;;;13.23;8.57;;;2.50;99.90;;;;;;5073468;28;20017;-80
2020/12/02 11:34:42;;;;;;;13.40;7.82;;;2.60;99.90;;;;;;5073315;28;20092;-80
2020/12/02 11:37:16;;;;;;;14.90;8.52;;;2.70;99.90;;;;;;5059405;28;20033;-80
2020/12/02 11:40:02;;;;;;;12.45;7.88;;;2.70;99.90;;;;;;5088927;28;20021;-80
2020/12/02 11:43:14;;;;;;;15.60;9.10;;;2.90;99.90;;;;;;5073354;28;20467;-79
2020/12/02 11:45:43;;;;;;;12.50;8.43;;;2.80;99.90;;;;;;5068001;28;20400;-79
2020/12/02 11:48:21;;;;;;;13.15;8.85;;;2.80;99.90;;;;;;5073261;28;20020;-80
2020/12/02 11:51:14;;;;;;;11.95;8.18;;;2.90;99.90;;;;;;5073574;28;20027;-80
2020/12/02 11:53:57;;;;;;;13.00;8.57;;;2.90;99.90;;;;;;5088717;28;20028;-80
2020/12/02 11:56:34;;;;;;;11.55;7.85;;;2.90;99.90;;;;;;5088816;28;20021;-80
2020/12/02 11:59:20;;;;;;;12.13;7.75;;;3.00;99.90;;;;;;5071882;28;20035;-80
2020/12/02 12:01:54;;;;;;;14.13;8.77;;;3.10;99.90;;;;;;5073214;28;20507;-79
2020/12/02 12:04:28;;;;;;;14.82;9.27;;;3.10;99.90;;;;;;5088762;28;20051;-80
2020/12/02 12:06:57;;;;;;;11.88;8.23;;;3.00;99.90;;;;;;5073549;28;20028;-79
2020/12/02 12:09:33;;;;;;;39.08;20.55;;;3.10;99.90;;;;;;5077245;28;20103;-80
2020/12/02 12:12:09;;;;;;;26.23;13.98;;;3.00;99.90;;;;;;5077136;28;20100;-79
2020/12/02 12:14:44;;;;;;;16.13;9.40;;;3.00;99.90;;;;;;5092260;28;20049;-80
2020/12/02 12:17:19;;;;;;;16.95;9.05;;;3.10;99.90;;;;;;5075562;28;20031;-80
2020/12/02 12:19:45;;;;;;;20.83;11.23;;;3.10;99.90;;;;;;5077028;28;20016;-80
2020/12/02 12:22:35;;;;;;;14.82;9.77;;;3.10;99.90;;;;;;5076674;28;20017;-80
2020/12/02 12:25:20;;;;;;;16.98;10.38;;;3.10;99.90;;;;;;5075373;28;20028;-79
2020/12/02 12:27:47;;;;;;;17.95;9.90;;;3.10;99.90;;;;;;5076691;28;20024;-80
2020/12/02 12:30:14;;;;;;;20.85;11.25;;;2.90;99.90;;;;;;5075291;28;20028;-80
2020/12/02 12:33:03;;;;;;;18.15;10.43;;;2.90;99.90;;;;;;5092146;28;20033;-79
2020/12/02 12:35:34;;;;;;;19.77;10.35;;;3.00;99.90;;;;;;5076766;28;20028;-79
2020/12/02 12:38:00;;;;;;;23.42;11.90;;;3.10;99.90;;;;;;5076480;28;20025;-79
2020/12/02 12:40:35;;;;;;;21.17;12.45;;;3.00;99.90;;;;;;5075066;28;20051;-79
2020/12/02 12:43:05;;;;;;;25.15;13.48;;;3.10;99.90;;;;;;5091958;28;20020;-79
2020/12/02 12:45:44;;;;;;;22.48;12.20;;;3.00;99.90;;;;;;5091880;28;20029;-80
2020/12/02 12:48:17;;;;;;;29.77;14.93;;;3.10;99.90;;;;;;5074999;28;20413;-79
2020/12/02 12:50:45;;;;;;;30.35;15.65;;;3.10;99.90;;;;;;5092490;28;20055;-79
2020/12/02 12:53:12;;;;;;;39.95;18.65;;;3.10;99.90;;;;;;5075981;28;20083;-80
2020/12/02 12:55:38;;;;;;;29.02;14.70;;;3.10;99.90;;;;;;5076143;28;20045;-79
2020/12/02 12:58:11;;;;;;;29.83;14.93;;;3.10;99.90;;;;;;5074794;28;20052;-80
2020/12/02 13:00:46;;;;;;;25.90;13.85;;;3.10;99.90;;;;;;5091636;28;20037;-79
2020/12/02 13:03:19;;;;;;;25.55;13.30;;;3.10;99.90;;;;;;5091689;28;20040;-79
2020/12/02 13:06:11;;;;;;;33.08;14.77;;;3.00;99.90;;;;;;5091570;28;20373;-79
2020/12/02 13:08:48;;;;;;;30.23;15.57;;;3.00;99.90;;;;;;5075803;28;20036;-80
2020/12/02 13:11:31;;;;;;;30.23;16.02;;;3.00;99.90;;;;;;5074613;28;20029;-80